Time;durP1;ratioP1;P1;durP2;ratioP2;P2;SDS_P1;SDS_P2;PMS_P1;PMS_P2;Temp;Humidity;BMP_temperature;BMP_pressure;BME280_temperature;BME280_humidity;BME280_pressure;Samples;Min_cycle;Max_cycle;Signal;HPM_P1;HPM_P2
2022/01/15 00:06:07;;;;;;;538.47;321.70;;;39.00;2201.60;;;;;;5005597;28;20101;-82
2022/01/15 00:12:43;;;;;;;462.88;259.05;;;39.30;2201.60;;;;;;4992281;28;20494;-81
2022/01/15 00:26:04;;;;;;;533.10;312.17;;;39.30;2201.60;;;;;;5074902;28;20047;-78
2022/01/15 00:39:21;;;;;;;662.72;402.23;;;39.20;2201.60;;;;;;5015185;28;20033;-81
2022/01/15 00:46:13;;;;;;;608.53;369.20;;;38.90;2201.60;;;;;;4947308;29;20047;-83
2022/01/15 01:36:03;;;;;;;620.05;358.02;;;38.90;2201.60;;;;;;4901649;29;20072;-83
2022/01/15 01:39:20;;;;;;;528.83;292.83;;;38.80;2201.60;;;;;;4893415;29;20041;-87
2022/01/15 01:45:29;;;;;;;503.92;283.13;;;38.80;2201.60;;;;;;4974368;28;20078;-86
2022/01/15 01:48:04;;;;;;;461.27;236.38;;;38.60;2201.60;;;;;;4974134;28;20165;-89
2022/01/15 01:50:30;;;;;;;449.05;249.80;;;38.50;2201.60;;;;;;4957773;28;20058;-86
2022/01/15 01:52:58;;;;;;;451.85;243.57;;;38.70;2201.60;;;;;;4970561;28;20478;-88
2022/01/15 01:55:27;;;;;;;490.55;261.65;;;38.60;2201.60;;;;;;5000270;28;20030;-88
2022/01/15 01:57:55;;;;;;;380.30;200.75;;;38.50;2201.60;;;;;;5000126;28;20025;-89
2022/01/15 02:00:23;;;;;;;359.80;190.93;;;38.50;2201.60;;;;;;5002950;28;20363;-86
2022/01/15 02:02:50;;;;;;;242.02;135.07;;;38.40;2201.60;;;;;;5057333;28;20032;-88
2022/01/15 02:05:16;;;;;;;203.95;118.28;;;13.70;2201.60;;;;;;5057580;28;20021;-86
2022/01/15 02:07:43;;;;;;;257.58;138.57;;;13.70;2201.60;;;;;;5057582;28;20465;-87
2022/01/15 02:10:16;;;;;;;195.63;108.53;;;13.70;2201.60;;;;;;5080017;28;20040;-87
2022/01/15 02:12:43;;;;;;;153.23;93.20;;;13.60;2201.60;;;;;;5076153;28;20063;-88
2022/01/15 02:15:12;;;;;;;153.52;89.68;;;13.50;2201.60;;;;;;5058138;28;20052;-88
2022/01/15 02:17:39;;;;;;;128.75;84.75;;;13.50;2201.60;;;;;;5058460;28;20112;-86
2022/01/15 02:25:59;;;;;;;142.73;85.88;;;13.50;2201.60;;;;;;5058025;28;20401;-86
2022/01/15 02:28:30;;;;;;;241.13;130.73;;;13.50;2201.60;;;;;;5056453;28;20028;-86
2022/01/15 02:30:59;;;;;;;244.73;144.10;;;13.50;2201.60;;;;;;5056592;28;20428;-86
2022/01/15 02:33:26;;;;;;;332.17;187.02;;;13.60;2201.60;;;;;;5056301;28;20355;-84
2022/01/15 02:35:52;;;;;;;351.88;198.48;;;38.40;2201.60;;;;;;5056550;28;20111;-87
2022/01/15 02:38:18;;;;;;;357.95;200.05;;;38.60;2201.60;;;;;;5056442;28;20056;-87
2022/01/15 02:40:45;;;;;;;350.08;200.50;;;38.50;2201.60;;;;;;5056267;28;20052;-88
2022/01/15 02:43:16;;;;;;;331.13;184.90;;;38.70;2201.60;;;;;;5056282;28;20075;-86
2022/01/15 02:52:24;;;;;;;307.00;169.98;;;39.00;2201.60;;;;;;5068740;23;20072;-83
2022/01/15 03:22:41;;;;;;;289.67;142.60;;;38.40;2201.60;;;;;;5059057;28;20044;-85
2022/01/15 03:25:08;;;;;;;261.08;131.02;;;38.60;2201.60;;;;;;5055939;28;20075;-87
2022/01/15 03:27:34;;;;;;;206.23;109.32;;;13.70;2201.60;;;;;;5055274;28;20016;-88
2022/01/15 03:30:03;;;;;;;224.00;118.13;;;13.50;2201.60;;;;;;5055135;28;20522;-85
2022/01/15 03:32:29;;;;;;;248.48;138.23;;;13.40;2201.60;;;;;;5055315;28;20031;-86
2022/01/15 03:34:58;;;;;;;239.50;131.88;;;13.50;2201.60;;;;;;5055330;28;20115;-87
2022/01/15 03:37:27;;;;;;;241.65;133.02;;;13.40;2201.60;;;;;;5055102;28;20369;-86
2022/01/15 03:39:58;;;;;;;216.27;125.70;;;13.30;2201.60;;;;;;5055178;28;20021;-87
2022/01/15 03:42:24;;;;;;;205.05;119.25;;;13.40;2201.60;;;;;;5055258;28;20079;-87
2022/01/15 03:44:50;;;;;;;223.35;126.72;;;13.40;2201.60;;;;;;5055251;28;20475;-89
2022/01/15 03:47:19;;;;;;;194.65;113.43;;;13.60;2201.60;;;;;;5055208;28;20022;-87
2022/01/15 03:50:00;;;;;;;210.90;123.35;;;13.50;2201.60;;;;;;5054620;28;20028;-88
2022/01/15 03:52:29;;;;;;;203.77;112.72;;;13.50;2201.60;;;;;;5054985;28;20064;-87
2022/01/15 03:54:57;;;;;;;198.05;115.75;;;13.50;2201.60;;;;;;5055144;28;20016;-88
2022/01/15 03:57:25;;;;;;;238.23;133.32;;;13.50;2201.60;;;;;;5055217;28;20350;-87
2022/01/15 03:59:51;;;;;;;253.10;142.73;;;13.40;2201.60;;;;;;5054925;28;20017;-88
2022/01/15 04:02:17;;;;;;;288.90;160.65;;;13.50;2201.60;;;;;;5054789;28;20028;-88
2022/01/15 04:04:43;;;;;;;326.55;178.60;;;13.30;2201.60;;;;;;5054819;28;20033;-89
2022/01/15 04:07:09;;;;;;;332.35;180.65;;;13.30;2201.60;;;;;;5054914;28;20021;-87
2022/01/15 04:09:35;;;;;;;330.85;178.68;;;13.30;2201.60;;;;;;5054809;28;20025;-90
2022/01/15 04:12:01;;;;;;;330.80;182.48;;;13.20;2201.60;;;;;;5054361;28;20017;-88
2022/01/15 04:14:27;;;;;;;286.35;156.40;;;13.10;2201.60;;;;;;5054627;28;20033;-88
2022/01/15 04:16:56;;;;;;;276.20;154.20;;;13.00;2201.60;;;;;;5054634;28;20024;-88
2022/01/15 04:20:08;;;;;;;228.23;131.05;;;13.00;2201.60;;;;;;5054563;28;20449;-89
2022/01/15 04:23:25;;;;;;;252.18;138.13;;;13.00;2201.60;;;;;;5035438;28;20460;-85
2022/01/15 04:26:24;;;;;;;234.95;131.52;;;13.00;2201.60;;;;;;5046067;28;20029;-89
2022/01/15 04:28:50;;;;;;;254.23;145.65;;;12.90;2201.60;;;;;;5054306;28;20021;-87
2022/01/15 04:31:17;;;;;;;249.93;148.32;;;13.00;2201.60;;;;;;5054477;28;20021;-86
2022/01/15 04:33:44;;;;;;;252.98;142.90;;;12.90;2201.60;;;;;;5053894;28;20025;-88
2022/01/15 04:36:10;;;;;;;248.10;140.95;;;0.30;2201.60;;;;;;5054180;28;20138;-88
2022/01/15 04:38:39;;;;;;;255.45;148.40;;;0.00;2201.60;;;;;;5054266;28;20120;-88
2022/01/15 04:41:06;;;;;;;255.35;143.70;;;0.00;2201.60;;;;;;5054423;28;20028;-88
2022/01/15 04:43:33;;;;;;;242.73;141.43;;;0.00;2201.60;;;;;;5053823;28;20036;-88
2022/01/15 04:45:59;;;;;;;242.38;145.40;;;0.20;2201.60;;;;;;5054449;28;20472;-88
2022/01/15 04:48:38;;;;;;;259.48;147.20;;;0.10;2201.60;;;;;;5054341;28;20025;-87
2022/01/15 04:51:04;;;;;;;263.40;155.88;;;0.10;2201.60;;;;;;5054231;28;20025;-88
2022/01/15 04:53:30;;;;;;;250.80;146.75;;;0.20;2201.60;;;;;;5053666;28;20025;-89
2022/01/15 04:55:55;;;;;;;247.40;141.52;;;0.30;2201.60;;;;;;5053840;28;20061;-87
2022/01/15 04:58:23;;;;;;;184.32;110.95;;;0.30;2201.60;;;;;;5053522;28;20017;-87
2022/01/15 05:00:48;;;;;;;144.13;88.07;;;0.70;2201.60;;;;;;5053688;28;20120;-88
2022/01/15 05:03:14;;;;;;;98.78;59.08;;;25.60;2201.60;;;;;;5053927;28;20124;-87
2022/01/15 05:05:40;;;;;;;54.92;34.05;;;25.80;2201.60;;;;;;5053702;28;20079;-88
2022/01/15 05:08:10;;;;;;;53.38;30.38;;;26.00;2201.60;;;;;;5053726;28;20021;-87
2022/01/15 05:10:36;;;;;;;57.90;30.45;;;26.20;2201.60;;;;;;5053764;28;20025;-89
2022/01/15 05:13:02;;;;;;;53.47;29.10;;;26.40;2201.60;;;;;;5053663;28;20098;-88
2022/01/15 05:15:28;;;;;;;36.55;22.40;;;51.30;2227.20;;;;;;5054074;28;20092;-89
2022/01/15 05:17:55;;;;;;;35.97;20.85;;;51.60;2227.20;;;;;;5054008;28;20052;-88
2022/01/15 05:20:22;;;;;;;38.75;23.77;;;51.80;2227.20;;;;;;5053661;28;20021;-87
2022/01/15 05:22:50;;;;;;;42.35;24.50;;;51.90;2227.20;;;;;;5053361;28;20025;-87
2022/01/15 05:25:19;;;;;;;40.67;24.70;;;51.90;2227.20;;;;;;5053077;28;20112;-87
2022/01/15 05:27:46;;;;;;;32.80;21.25;;;52.00;2227.20;;;;;;5053445;28;20110;-86
2022/01/15 05:30:13;;;;;;;38.63;23.40;;;52.10;2227.20;;;;;;5053113;28;20370;-86
2022/01/15 05:32:39;;;;;;;37.65;23.40;;;76.80;2227.20;;;;;;5053389;28;20016;-87
2022/01/15 05:35:06;;;;;;;32.03;20.40;;;77.00;2227.20;;;;;;5053362;28;20025;-88
2022/01/15 05:37:34;;;;;;;34.17;22.08;;;77.10;2227.20;;;;;;5052832;28;20028;-87
2022/01/15 05:40:24;;;;;;;37.85;25.23;;;77.10;2227.20;;;;;;5053264;28;20104;-87
2022/01/15 05:42:57;;;;;;;69.50;45.15;;;77.00;2227.20;;;;;;5015642;28;20033;-87
2022/01/15 05:45:25;;;;;;;51.97;36.05;;;77.00;2227.20;;;;;;5053226;28;20056;-87
2022/01/15 05:48:02;;;;;;;49.30;33.35;;;77.00;2227.20;;;;;;5053543;28;20018;-87
2022/01/15 05:50:31;;;;;;;49.95;31.25;;;77.00;2227.20;;;;;;5053307;28;20051;-87
2022/01/15 05:52:58;;;;;;;43.38;25.80;;;76.90;2227.20;;;;;;5057897;28;20020;-86
2022/01/15 05:55:25;;;;;;;35.80;22.58;;;76.90;2227.20;;;;;;5077886;28;20105;-86
2022/01/15 05:57:53;;;;;;;27.67;18.13;;;76.90;2227.20;;;;;;5058632;28;20029;-87
2022/01/15 06:00:19;;;;;;;30.70;20.30;;;76.90;2227.20;;;;;;5056729;28;20449;-87
2022/01/15 06:02:45;;;;;;;27.70;19.30;;;76.80;2227.20;;;;;;5053372;28;20039;-86
2022/01/15 06:05:11;;;;;;;35.28;20.90;;;76.80;2227.20;;;;;;5053105;28;20415;-87
2022/01/15 06:07:40;;;;;;;29.23;19.90;;;76.80;2227.20;;;;;;5052818;28;20373;-87
2022/01/15 06:10:06;;;;;;;26.85;17.52;;;76.80;2227.20;;;;;;5052756;28;20045;-86
2022/01/15 06:12:43;;;;;;;31.10;20.70;;;76.80;2227.20;;;;;;5052464;28;20079;-87
2022/01/15 06:15:14;;;;;;;58.58;32.55;;;76.80;2227.20;;;;;;5052842;28;20479;-86
2022/01/15 06:17:40;;;;;;;60.40;35.78;;;76.80;2227.20;;;;;;5053049;28;20021;-87
2022/01/15 06:20:12;;;;;;;81.20;46.22;;;52.10;2227.20;;;;;;5051548;28;20068;-87
2022/01/15 06:22:41;;;;;;;64.80;39.88;;;76.80;2227.20;;;;;;5052936;28;20025;-87
2022/01/15 06:25:07;;;;;;;81.43;48.60;;;76.80;2227.20;;;;;;5052909;28;20021;-87
2022/01/15 06:27:36;;;;;;;100.15;57.97;;;76.80;2227.20;;;;;;5052891;28;20022;-85
2022/01/15 06:30:14;;;;;;;121.15;70.53;;;76.80;2227.20;;;;;;5052387;28;20016;-85
2022/01/15 06:32:52;;;;;;;94.10;60.63;;;76.80;2227.20;;;;;;5052868;28;20021;-87
2022/01/15 06:36:02;;;;;;;89.03;57.80;;;52.10;2227.20;;;;;;5052628;28;20475;-87
2022/01/15 06:42:10;;;;;;;50.80;37.50;;;52.10;2227.20;;;;;;5057124;28;20032;-87
2022/01/15 06:45:11;;;;;;;50.55;33.40;;;76.80;2227.20;;;;;;5055925;28;20036;-87
2022/01/15 06:50:47;;;;;;;45.80;27.95;;;76.90;2227.20;;;;;;5056723;28;20083;-86
2022/01/15 06:53:15;;;;;;;50.38;32.15;;;76.90;2227.20;;;;;;5056029;28;20028;-86
2022/01/15 06:55:41;;;;;;;47.17;32.92;;;77.10;2227.20;;;;;;5056193;28;20025;-86
2022/01/15 06:58:07;;;;;;;67.35;38.38;;;77.20;2227.20;;;;;;5056141;28;20075;-87
2022/01/15 07:00:35;;;;;;;110.75;56.55;;;77.10;2227.20;;;;;;5056159;28;20108;-87
2022/01/15 07:03:04;;;;;;;58.28;35.90;;;77.20;2227.20;;;;;;5055557;28;20090;-87
2022/01/15 07:05:30;;;;;;;99.15;52.13;;;77.30;2227.20;;;;;;5055756;28;20024;-86
2022/01/15 07:08:03;;;;;;;99.72;47.65;;;77.30;2227.20;;;;;;5055832;28;20017;-86
2022/01/15 07:10:43;;;;;;;66.63;31.48;;;77.30;2227.20;;;;;;5056054;28;20078;-87
2022/01/15 07:13:12;;;;;;;66.53;34.97;;;77.40;2227.20;;;;;;5055663;28;20076;-85
2022/01/15 07:15:40;;;;;;;61.20;33.35;;;77.50;2227.20;;;;;;5055565;28;20052;-85
2022/01/15 07:18:15;;;;;;;80.68;46.17;;;77.50;2227.20;;;;;;5055646;28;20071;-85
2022/01/15 07:20:42;;;;;;;48.00;33.10;;;77.60;2227.20;;;;;;5055185;28;20056;-85
2022/01/15 07:23:14;;;;;;;61.55;40.10;;;102.40;2227.20;;;;;;5055714;28;20040;-85
2022/01/15 07:25:42;;;;;;;38.30;25.95;;;102.50;2227.20;;;;;;5055366;28;20480;-86
2022/01/15 07:28:14;;;;;;;64.45;39.40;;;102.60;2227.20;;;;;;5055499;28;20441;-85
2022/01/15 07:31:10;;;;;;;80.43;45.90;;;102.50;2227.20;;;;;;5055469;28;20021;-85
2022/01/15 07:33:35;;;;;;;43.35;28.20;;;102.50;2227.20;;;;;;5055461;28;20379;-84
2022/01/15 07:36:01;;;;;;;43.70;27.90;;;102.40;2227.20;;;;;;5055211;28;20024;-85
2022/01/15 07:38:28;;;;;;;41.80;27.25;;;102.50;2227.20;;;;;;5055471;28;20024;-85
2022/01/15 07:40:56;;;;;;;40.63;30.00;;;102.60;2227.20;;;;;;5055179;28;20025;-85
2022/01/15 07:43:23;;;;;;;33.63;25.42;;;102.60;2227.20;;;;;;5054851;28;20037;-86
2022/01/15 07:45:49;;;;;;;45.78;27.77;;;102.70;2227.20;;;;;;5055446;28;20112;-84
2022/01/15 07:48:15;;;;;;;46.35;31.00;;;102.70;2227.20;;;;;;5056110;28;20091;-85
2022/01/15 07:50:41;;;;;;;35.67;23.98;;;102.80;2227.20;;;;;;5054991;28;20456;-86
2022/01/15 07:53:07;;;;;;;37.33;25.52;;;102.80;2227.20;;;;;;5055040;28;20021;-86
2022/01/15 07:55:33;;;;;;;33.65;24.50;;;102.90;2227.20;;;;;;5054859;28;20081;-85
2022/01/15 07:57:59;;;;;;;36.95;22.90;;;102.90;2227.20;;;;;;5055257;28;20415;-84
2022/01/15 08:00:24;;;;;;;34.33;22.42;;;103.00;2227.20;;;;;;5054831;28;20021;-85
2022/01/15 08:02:50;;;;;;;41.90;29.30;;;103.00;2227.20;;;;;;5054528;28;20025;-85
2022/01/15 08:05:16;;;;;;;34.08;25.08;;;103.10;2227.20;;;;;;5054490;28;20464;-84
2022/01/15 08:11:11;;;;;;;31.95;19.00;;;103.10;2227.20;;;;;;5052965;28;20475;-85
2022/01/15 08:13:37;;;;;;;49.50;28.77;;;103.20;2227.20;;;;;;5054441;28;20037;-85
2022/01/15 08:16:04;;;;;;;51.35;30.48;;;103.20;2227.20;;;;;;5054613;28;20033;-84
2022/01/15 08:18:31;;;;;;;52.00;30.25;;;103.30;2227.20;;;;;;5054450;28;20024;-85
2022/01/15 08:20:58;;;;;;;39.28;22.30;;;103.30;2227.20;;;;;;5054483;28;20078;-84
2022/01/15 08:23:23;;;;;;;37.30;24.05;;;128.00;2252.80;;;;;;5054297;28;20079;-83
2022/01/15 08:25:49;;;;;;;36.92;22.30;;;103.30;2227.20;;;;;;5054589;28;20017;-85
2022/01/15 08:28:17;;;;;;;67.50;37.03;;;103.30;2227.20;;;;;;5054094;28;20047;-85
2022/01/15 08:30:44;;;;;;;33.75;22.05;;;128.00;2252.80;;;;;;5053995;28;20029;-86
2022/01/15 08:33:10;;;;;;;32.53;20.73;;;128.00;2252.80;;;;;;5054148;28;20064;-85
2022/01/15 08:35:36;;;;;;;39.45;25.70;;;128.00;2252.80;;;;;;5054293;28;20021;-85
2022/01/15 08:38:03;;;;;;;60.20;37.67;;;128.00;2252.80;;;;;;5054112;28;20374;-85
2022/01/15 08:40:33;;;;;;;48.75;31.58;;;128.00;2252.80;;;;;;5054540;28;20060;-84
2022/01/15 08:43:00;;;;;;;46.42;31.85;;;128.00;2252.80;;;;;;5054149;28;20021;-84
2022/01/15 08:45:26;;;;;;;37.35;27.15;;;128.00;2252.80;;;;;;5053984;28;20013;-84
2022/01/15 08:47:55;;;;;;;37.33;26.70;;;128.10;2252.80;;;;;;5053967;28;20017;-86
2022/01/15 08:50:22;;;;;;;42.83;29.25;;;128.10;2252.80;;;;;;5054041;28;20518;-82
2022/01/15 08:52:48;;;;;;;43.72;26.33;;;128.10;2252.80;;;;;;5054267;28;20025;-86
2022/01/15 08:55:17;;;;;;;45.25;29.83;;;128.10;2252.80;;;;;;5055161;28;20021;-86
2022/01/15 08:57:46;;;;;;;42.80;25.88;;;128.20;2252.80;;;;;;5054110;28;20040;-82
2022/01/15 09:00:16;;;;;;;38.08;24.67;;;128.10;2252.80;;;;;;5052855;28;20376;-84
2022/01/15 09:02:42;;;;;;;37.47;26.02;;;128.10;2252.80;;;;;;5053317;28;20020;-84
2022/01/15 09:05:09;;;;;;;46.47;29.40;;;128.10;2252.80;;;;;;5055438;28;20136;-86
2022/01/15 09:07:35;;;;;;;32.45;22.05;;;128.10;2252.80;;;;;;5054575;28;20025;-84
2022/01/15 09:10:01;;;;;;;33.42;22.88;;;128.10;2252.80;;;;;;5053594;28;20021;-84
2022/01/15 09:12:27;;;;;;;36.45;23.90;;;128.10;2252.80;;;;;;5053161;28;20047;-84
2022/01/15 09:14:54;;;;;;;32.00;21.95;;;128.10;2252.80;;;;;;5053323;28;20021;-84
2022/01/15 09:17:20;;;;;;;33.28;22.48;;;128.10;2252.80;;;;;;5053235;28;20021;-84
2022/01/15 09:19:46;;;;;;;51.72;33.28;;;128.10;2252.80;;;;;;5075150;28;20080;-84
2022/01/15 09:22:12;;;;;;;47.97;30.80;;;128.20;2252.80;;;;;;5078195;28;20035;-84
2022/01/15 09:24:38;;;;;;;33.92;20.40;;;128.20;2252.80;;;;;;5077977;28;20040;-83
2022/01/15 09:30:12;;;;;;;37.77;23.30;;;128.30;2252.80;;;;;;5055705;28;20074;-85
2022/01/15 09:32:46;;;;;;;41.60;26.13;;;128.30;2252.80;;;;;;5053163;28;20044;-84
2022/01/15 09:35:16;;;;;;;37.00;22.95;;;128.30;2252.80;;;;;;5052890;28;20441;-84
2022/01/15 09:37:42;;;;;;;51.25;32.42;;;128.30;2252.80;;;;;;5053001;28;20025;-84
2022/01/15 09:40:10;;;;;;;52.38;30.63;;;128.00;2252.80;;;;;;5053051;28;20055;-84
2022/01/15 09:42:41;;;;;;;56.33;35.42;;;128.40;2252.80;;;;;;5052756;28;20029;-83
2022/01/15 09:45:10;;;;;;;49.67;29.95;;;128.50;2252.80;;;;;;5052489;28;20025;-83
2022/01/15 09:47:36;;;;;;;38.88;25.50;;;128.40;2252.80;;;;;;5052728;28;20020;-82
2022/01/15 09:50:09;;;;;;;49.38;34.28;;;128.50;2252.80;;;;;;5053064;28;20027;-81
2022/01/15 09:52:35;;;;;;;53.28;33.60;;;128.50;2252.80;;;;;;5053155;28;20025;-84
2022/01/15 09:55:09;;;;;;;48.67;31.75;;;128.60;2252.80;;;;;;5052545;28;20376;-84
2022/01/15 09:57:36;;;;;;;41.25;29.02;;;128.60;2252.80;;;;;;5054027;28;20021;-83
2022/01/15 10:00:07;;;;;;;41.25;30.42;;;128.70;2252.80;;;;;;5052773;28;20025;-83
2022/01/15 10:02:38;;;;;;;42.88;27.02;;;128.70;2252.80;;;;;;5052693;28;20013;-83
2022/01/15 10:05:04;;;;;;;45.30;29.08;;;128.70;2252.80;;;;;;5052929;28;20372;-84
2022/01/15 10:07:30;;;;;;;50.58;32.92;;;128.80;2252.80;;;;;;5052719;28;20059;-83
2022/01/15 10:10:10;;;;;;;46.38;28.20;;;128.80;2252.80;;;;;;5052063;28;20060;-84
2022/01/15 10:12:38;;;;;;;38.22;28.20;;;128.80;2252.80;;;;;;5054376;28;20044;-83
2022/01/15 10:15:06;;;;;;;46.40;30.08;;;128.90;2252.80;;;;;;5056451;28;20036;-82
2022/01/15 10:17:35;;;;;;;54.08;33.88;;;128.90;2252.80;;;;;;5056491;28;20021;-87
2022/01/15 10:20:06;;;;;;;35.15;24.98;;;153.60;2252.80;;;;;;5056776;28;20024;-81
2022/01/15 10:22:32;;;;;;;55.00;31.95;;;153.60;2252.80;;;;;;5056949;28;20024;-82
2022/01/15 10:25:07;;;;;;;45.80;29.00;;;153.70;2252.80;;;;;;5056124;28;20229;-81
2022/01/15 10:27:44;;;;;;;39.55;24.77;;;153.70;2252.80;;;;;;5056364;28;20017;-80
2022/01/15 10:30:11;;;;;;;49.28;31.65;;;153.80;2252.80;;;;;;5055979;28;20023;-79
2022/01/15 10:32:55;;;;;;;52.30;32.28;;;153.80;2252.80;;;;;;5056161;28;20024;-81
2022/01/15 10:35:25;;;;;;;42.88;26.88;;;153.80;2252.80;;;;;;5056212;28;20021;-81
2022/01/15 10:37:59;;;;;;;41.03;24.65;;;153.90;2252.80;;;;;;5055658;28;20025;-82
2022/01/15 10:40:27;;;;;;;35.58;23.67;;;153.80;2252.80;;;;;;5055895;28;20079;-82
2022/01/15 10:42:59;;;;;;;54.03;34.50;;;153.90;2252.80;;;;;;5055417;28;20407;-81
2022/01/15 10:45:31;;;;;;;35.22;22.85;;;154.00;2252.80;;;;;;5053276;28;20339;-79
2022/01/15 10:48:01;;;;;;;51.35;32.63;;;154.00;2252.80;;;;;;5054561;28;20365;-79
2022/01/15 10:50:33;;;;;;;45.40;27.67;;;154.00;2252.80;;;;;;5055456;28;20029;-80
2022/01/15 10:53:09;;;;;;;41.25;27.40;;;154.10;2252.80;;;;;;5054496;28;20049;-80
2022/01/15 10:55:37;;;;;;;48.92;30.05;;;154.10;2252.80;;;;;;5054810;28;20431;-79
2022/01/15 10:58:05;;;;;;;47.88;27.27;;;154.10;2252.80;;;;;;5054502;28;20066;-80
2022/01/15 11:00:42;;;;;;;42.00;26.65;;;154.20;2252.80;;;;;;5052540;28;20024;-83
2022/01/15 11:03:12;;;;;;;45.30;26.80;;;154.20;2252.80;;;;;;5053442;28;20032;-82
2022/01/15 11:05:43;;;;;;;36.40;23.48;;;154.30;2252.80;;;;;;5038511;28;20108;-82
2022/01/15 11:08:16;;;;;;;45.67;27.05;;;154.30;2252.80;;;;;;5038698;28;20029;-81
2022/01/15 11:10:54;;;;;;;38.85;25.42;;;154.40;2252.80;;;;;;5055481;28;20016;-80
2022/01/15 11:13:29;;;;;;;36.05;23.55;;;154.50;2252.80;;;;;;5038159;28;20080;-82
2022/01/15 11:16:05;;;;;;;37.17;24.73;;;154.50;2252.80;;;;;;5054170;28;20043;-81
2022/01/15 11:18:36;;;;;;;50.13;30.17;;;154.50;2252.80;;;;;;5053950;28;20028;-81
2022/01/15 11:21:13;;;;;;;41.42;27.70;;;154.50;2252.80;;;;;;5054579;28;20021;-82
2022/01/15 11:23:41;;;;;;;45.28;31.02;;;154.50;2252.80;;;;;;5054845;28;20056;-81
2022/01/15 11:26:24;;;;;;;35.15;23.67;;;179.20;2252.80;;;;;;5037169;28;20067;-81
2022/01/15 11:28:53;;;;;;;40.40;26.88;;;179.20;2252.80;;;;;;5053634;28;20025;-81
2022/01/15 11:31:34;;;;;;;43.10;26.20;;;179.30;2252.80;;;;;;5054794;28;20116;-81
2022/01/15 11:34:02;;;;;;;34.90;23.50;;;179.40;2252.80;;;;;;5037270;28;20029;-82
2022/01/15 11:36:39;;;;;;;38.25;24.83;;;179.20;2252.80;;;;;;5038219;28;20157;-81
2022/01/15 11:39:21;;;;;;;37.75;25.75;;;179.60;2252.80;;;;;;5054570;28;20452;-81
2022/01/15 11:41:55;;;;;;;35.80;22.73;;;179.70;2252.80;;;;;;5054651;28;20021;-81
2022/01/15 11:44:33;;;;;;;30.73;19.90;;;179.70;2252.80;;;;;;5037623;28;20075;-81
2022/01/15 11:47:23;;;;;;;36.72;23.67;;;179.90;2252.80;;;;;;5054479;28;20052;-81
2022/01/15 11:49:53;;;;;;;36.17;24.52;;;180.10;2252.80;;;;;;5055846;28;20479;-80
2022/01/15 11:52:21;;;;;;;41.30;26.85;;;204.90;2252.80;;;;;;5037762;28;20120;-81
2022/01/15 11:55:02;;;;;;;40.55;24.17;;;205.00;2252.80;;;;;;5054187;28;20407;-81
2022/01/15 11:57:30;;;;;;;36.13;24.08;;;205.10;2252.80;;;;;;5054588;28;20050;-81
2022/01/15 12:00:23;;;;;;;35.13;22.77;;;205.20;2252.80;;;;;;5054051;28;20024;-82
2022/01/15 12:02:55;;;;;;;;;;;205.30;2252.80;;;;;;5038079;28;20029;-80
2022/01/15 12:05:21;;;;;;;25.83;17.50;;;205.40;2252.80;;;;;;5037586;28;20336;-83
2022/01/15 12:08:08;;;;;;;30.95;20.92;;;205.60;2252.80;;;;;;5054966;28;20032;-82
2022/01/15 12:10:45;;;;;;;35.55;23.95;;;205.60;2252.80;;;;;;5053395;28;20025;-83
2022/01/15 12:13:15;;;;;;;34.55;24.45;;;230.50;2252.80;;;;;;5055081;28;20056;-83
2022/01/15 12:15:41;;;;;;;32.83;21.05;;;230.50;2252.80;;;;;;5037277;28;20092;-82
2022/01/15 12:18:21;;;;;;;41.42;29.42;;;230.60;2252.80;;;;;;5054012;28;20024;-82
2022/01/15 12:20:49;;;;;;;37.42;24.73;;;230.80;2252.80;;;;;;5037360;28;20024;-83
2022/01/15 12:23:18;;;;;;;37.78;24.05;;;230.80;2252.80;;;;;;5036926;28;20040;-81
2022/01/15 12:25:49;;;;;;;40.72;28.05;;;230.90;2252.80;;;;;;5053835;28;20108;-82
2022/01/15 12:28:16;;;;;;;33.55;24.63;;;230.90;2252.80;;;;;;5053746;28;20112;-81
2022/01/15 12:30:50;;;;;;;34.03;24.27;;;231.10;2252.80;;;;;;5036959;28;20415;-80
2022/01/15 12:33:18;;;;;;;32.25;23.58;;;231.30;2252.80;;;;;;5059312;28;20013;-80
2022/01/15 12:35:51;;;;;;;31.50;24.13;;;256.10;2252.80;;;;;;5041204;28;20028;-83
2022/01/15 12:38:29;;;;;;;28.52;19.52;;;256.00;2252.80;;;;;;5055111;28;20021;-80
2022/01/15 12:41:06;;;;;;;50.22;37.63;;;231.20;2252.80;;;;;;5036798;28;20028;-84
2022/01/15 12:43:38;;;;;;;37.30;26.73;;;231.30;2252.80;;;;;;5054331;28;20024;-84
2022/01/15 12:46:12;;;;;;;41.15;32.03;;;231.10;2252.80;;;;;;5036875;28;20047;-83
2022/01/15 12:48:40;;;;;;;47.35;35.50;;;256.00;2252.80;;;;;;5054257;28;20372;-80
2022/01/15 12:51:11;;;;;;;42.10;30.63;;;256.00;2252.80;;;;;;5036506;28;20016;-82
2022/01/15 12:53:40;;;;;;;41.28;28.88;;;231.10;2252.80;;;;;;5036178;28;20025;-81
2022/01/15 12:56:18;;;;;;;35.85;22.95;;;231.30;2252.80;;;;;;5054456;28;20021;-81
2022/01/15 12:58:43;;;;;;;34.35;26.00;;;231.30;2252.80;;;;;;5036382;28;20048;-81
2022/01/15 13:01:10;;;;;;;41.20;28.05;;;231.00;2252.80;;;;;;5052609;28;20449;-80
2022/01/15 13:03:38;;;;;;;43.03;28.30;;;231.20;2252.80;;;;;;5053021;28;20479;-78
2022/01/15 13:06:06;;;;;;;43.72;28.75;;;256.00;2252.80;;;;;;5036326;28;20448;-79
2022/01/15 13:08:42;;;;;;;54.92;35.70;;;231.20;2252.80;;;;;;5035966;28;20469;-81
2022/01/15 13:13:42;;;;;;;56.45;34.15;;;231.10;2252.80;;;;;;5051232;28;20503;-78
2022/01/15 13:16:23;;;;;;;49.33;32.58;;;231.00;2252.80;;;;;;5050756;28;20029;-79
2022/01/15 13:18:57;;;;;;;48.15;29.13;;;231.30;2252.80;;;;;;5051831;28;20032;-80
2022/01/15 13:21:26;;;;;;;37.00;26.02;;;256.00;2252.80;;;;;;5051058;28;20021;-78
2022/01/15 13:23:55;;;;;;;36.13;23.95;;;256.10;2252.80;;;;;;5051600;28;20086;-77
2022/01/15 13:26:34;;;;;;;32.95;22.92;;;256.20;2252.80;;;;;;5051378;28;20172;-78
2022/01/15 13:29:08;;;;;;;31.13;20.95;;;256.00;2227.20;;;;;;5051153;28;20470;-80
2022/01/15 13:31:39;;;;;;;35.20;26.40;;;231.10;2252.80;;;;;;5051732;28;20075;-78
2022/01/15 13:34:10;;;;;;;31.90;23.88;;;231.00;2252.80;;;;;;5051687;28;20096;-80
2022/01/15 13:36:37;;;;;;;42.70;31.02;;;230.90;2252.80;;;;;;5050884;28;20025;-78
2022/01/15 13:39:04;;;;;;;35.95;25.92;;;230.80;2252.80;;;;;;5051659;28;20021;-80
2022/01/15 13:41:33;;;;;;;47.38;33.38;;;230.50;2252.80;;;;;;5051397;28;20021;-79
2022/01/15 13:44:06;;;;;;;36.30;24.92;;;230.40;2252.80;;;;;;5050797;28;20380;-79
2022/01/15 13:46:36;;;;;;;32.28;23.95;;;205.60;2252.80;;;;;;5051005;28;20028;-79
2022/01/15 13:49:16;;;;;;;36.40;27.42;;;205.30;2252.80;;;;;;5051203;28;20017;-77
2022/01/15 13:54:58;;;;;;;41.15;28.98;;;205.20;2252.80;;;;;;5052838;28;20067;-79
2022/01/15 13:57:29;;;;;;;72.53;53.28;;;205.10;2252.80;;;;;;5050854;28;20079;-79
2022/01/15 14:00:10;;;;;;;65.40;49.53;;;205.20;2252.80;;;;;;5051574;28;20116;-81
2022/01/15 14:02:36;;;;;;;70.50;48.15;;;205.30;2252.80;;;;;;5052783;28;20056;-79
2022/01/15 14:05:13;;;;;;;78.30;54.20;;;205.40;2252.80;;;;;;5050242;28;20444;-80
2022/01/15 14:07:40;;;;;;;66.93;47.50;;;205.70;2252.80;;;;;;5051253;28;20052;-76
2022/01/15 14:10:14;;;;;;;119.93;81.97;;;205.70;2252.80;;;;;;5051141;28;20024;-79
2022/01/15 14:12:40;;;;;;;50.15;36.85;;;230.40;2252.80;;;;;;5050831;28;20534;-78
2022/01/15 14:15:17;;;;;;;46.42;33.45;;;230.40;2252.80;;;;;;5052831;28;20355;-77
2022/01/15 14:17:45;;;;;;;44.50;29.40;;;230.40;2252.80;;;;;;5050959;28;20111;-79
2022/01/15 14:22:54;;;;;;;48.53;29.85;;;205.70;2252.80;;;;;;5052701;28;20151;-78
2022/01/15 14:25:25;;;;;;;52.08;36.28;;;205.70;2252.80;;;;;;5052159;28;20135;-77
2022/01/15 14:28:16;;;;;;;50.25;35.65;;;205.50;2252.80;;;;;;5050751;28;20025;-79
2022/01/15 14:30:44;;;;;;;39.83;30.30;;;205.20;2252.80;;;;;;5051410;28;20389;-79
2022/01/15 14:33:11;;;;;;;39.92;28.77;;;205.00;2252.80;;;;;;5050840;28;20027;-76
2022/01/15 14:35:37;;;;;;;45.13;30.75;;;180.00;2252.80;;;;;;5051012;28;20025;-76
2022/01/15 14:38:03;;;;;;;34.63;24.73;;;179.90;2252.80;;;;;;5045692;28;20031;-77
2022/01/15 14:40:30;;;;;;;47.97;32.13;;;179.70;2252.80;;;;;;5049377;28;20078;-82
2022/01/15 14:42:55;;;;;;;66.20;44.97;;;179.60;2252.80;;;;;;5051094;28;20083;-80